Time;durP1;ratioP1;P1;durP2;ratioP2;P2;SDS_P1;SDS_P2;PMS_P1;PMS_P2;Temp;Humidity;BMP_temperature;BMP_pressure;BME280_temperature;BME280_humidity;BME280_pressure;Samples;Min_cycle;Max_cycle;Signal;HPM_P1;HPM_P2
2021/06/23 00:00:47;;;;;;;3.55;2.22;;;20.20;80.10;;;19.07;78.90;95986.16;4951565;28;20053;-72
2021/06/23 00:03:13;;;;;;;4.15;2.40;;;20.20;80.90;;;19.08;78.49;95986.97;4984568;28;20027;-72
2021/06/23 00:05:38;;;;;;;2.13;1.90;;;20.10;81.00;;;19.04;78.30;95985.84;4947377;28;20059;-72
2021/06/23 00:08:05;;;;;;;2.05;1.70;;;20.00;80.30;;;18.98;79.04;95985.75;4968723;28;20045;-71
2021/06/23 00:10:30;;;;;;;3.05;2.00;;;20.00;80.30;;;18.91;78.63;95982.44;4970125;28;20030;-71
2021/06/23 00:13:01;;;;;;;3.08;1.75;;;20.00;80.50;;;18.90;78.20;95975.50;4952882;28;20030;-72
2021/06/23 00:15:27;;;;;;;3.22;2.00;;;20.00;79.80;;;18.88;77.47;95980.28;4978677;28;20072;-72
2021/06/23 00:17:52;;;;;;;2.92;1.80;;;19.90;80.00;;;18.87;78.08;95976.00;4971129;28;20082;-72
2021/06/23 00:20:18;;;;;;;4.65;1.88;;;19.90;80.00;;;18.81;78.16;95966.31;4963811;28;20030;-72
2021/06/23 00:22:44;;;;;;;2.45;1.23;;;19.90;80.10;;;18.78;77.72;95968.66;4968623;28;20459;-72
2021/06/23 00:25:10;;;;;;;2.53;1.50;;;19.80;79.50;;;18.76;78.06;95974.22;4979235;28;20035;-71
2021/06/23 00:27:36;;;;;;;2.92;1.25;;;19.80;80.00;;;18.76;77.41;95984.88;4977235;28;20058;-72
2021/06/23 00:30:04;;;;;;;3.88;1.40;;;19.80;80.10;;;18.75;77.74;95988.59;4969494;28;20114;-72
2021/06/23 00:32:31;;;;;;;1.58;1.20;;;19.90;80.50;;;18.75;77.61;95983.25;4963578;28;20117;-71
2021/06/23 00:34:57;;;;;;;4.45;1.50;;;19.80;80.60;;;18.74;78.01;95980.84;4960324;28;20043;-72
2021/06/23 00:37:22;;;;;;;1.60;1.20;;;19.80;80.70;;;18.72;77.89;95973.09;4936700;28;20086;-72
2021/06/23 00:39:48;;;;;;;2.63;1.30;;;19.80;80.80;;;18.70;78.95;95969.88;4969845;28;20035;-71
2021/06/23 00:42:14;;;;;;;3.33;1.40;;;19.80;80.70;;;18.66;79.01;95969.56;4996833;28;20562;-72
2021/06/23 00:44:40;;;;;;;3.00;1.48;;;19.80;81.20;;;18.66;78.29;95974.06;4977630;28;20046;-71
2021/06/23 00:47:07;;;;;;;2.45;1.48;;;19.70;81.30;;;18.65;78.52;95972.47;4966073;28;20199;-72
2021/06/23 00:49:33;;;;;;;1.90;1.50;;;19.70;81.40;;;18.61;79.10;95971.31;4958653;28;20070;-72
2021/06/23 00:52:00;;;;;;;2.70;1.30;;;19.60;81.80;;;18.61;78.72;95974.78;4964555;28;20035;-72
2021/06/23 00:54:25;;;;;;;2.85;1.30;;;19.70;81.70;;;18.61;78.80;95976.63;4969279;28;20122;-72
2021/06/23 00:56:51;;;;;;;2.20;1.30;;;19.70;81.80;;;18.57;78.99;95978.16;4963589;28;20042;-72
2021/06/23 00:59:17;;;;;;;1.85;1.38;;;19.70;81.80;;;18.54;79.10;95976.78;4968264;28;20031;-72
2021/06/23 01:01:43;;;;;;;1.88;1.30;;;19.60;81.80;;;18.55;79.17;95972.25;4967963;28;20062;-71
2021/06/23 01:04:09;;;;;;;2.85;1.60;;;19.60;82.10;;;18.54;79.76;95975.97;4969357;28;20122;-72
2021/06/23 01:06:34;;;;;;;1.75;1.38;;;19.60;82.20;;;18.53;79.12;95985.81;4964829;28;20575;-73
2021/06/23 01:09:01;;;;;;;1.50;1.30;;;19.60;81.80;;;18.52;79.73;95991.38;4969243;28;20560;-71
2021/06/23 01:11:27;;;;;;;3.13;1.60;;;19.60;81.70;;;18.51;79.38;95993.25;4950764;28;20027;-72
2021/06/23 01:14:04;;;;;;;1.65;1.40;;;19.60;82.00;;;18.50;81.10;95986.28;4966201;28;20035;-73
2021/06/23 01:16:35;;;;;;;3.00;1.70;;;19.60;82.40;;;18.46;79.31;95979.03;4948026;28;20050;-72
2021/06/23 01:19:07;;;;;;;3.80;2.03;;;19.50;82.30;;;18.46;80.20;95984.38;4986960;28;20050;-72
2021/06/23 01:21:33;;;;;;;3.58;1.80;;;19.50;82.40;;;18.42;80.14;95988.56;4979863;28;20043;-72
2021/06/23 01:23:59;;;;;;;1.85;1.50;;;19.50;82.40;;;18.36;80.28;95979.69;4957469;28;20478;-71
2021/06/23 01:26:25;;;;;;;3.42;1.90;;;19.40;83.10;;;18.33;79.56;95977.47;4987669;28;20574;-71
2021/06/23 01:28:51;;;;;;;1.88;1.40;;;19.30;83.20;;;18.30;80.32;95973.44;4969521;28;20031;-72
2021/06/23 01:31:20;;;;;;;2.55;1.50;;;19.30;82.50;;;18.29;80.90;95969.16;4969376;28;20114;-72
2021/06/23 01:33:46;;;;;;;2.97;1.65;;;19.40;82.30;;;18.25;80.49;95962.72;4983834;28;20575;-72
2021/06/23 01:36:12;;;;;;;2.33;1.63;;;19.30;82.50;;;18.21;80.53;95956.25;4964723;28;20054;-72
2021/06/23 01:38:37;;;;;;;2.00;1.70;;;19.30;82.40;;;18.19;79.81;95961.03;4952691;28;20506;-73
2021/06/23 01:41:03;;;;;;;2.67;1.70;;;19.40;82.30;;;18.17;81.00;95964.97;4969216;28;20587;-72
2021/06/23 01:43:29;;;;;;;2.35;1.60;;;19.30;82.80;;;18.17;80.54;95962.31;4953050;28;20644;-71
2021/06/23 01:45:55;;;;;;;4.07;1.90;;;19.20;83.00;;;18.18;80.88;95971.91;4981362;28;20520;-72
2021/06/23 01:48:22;;;;;;;2.67;1.65;;;19.30;82.70;;;18.19;80.02;95968.19;4954103;28;20142;-72
2021/06/23 01:51:02;;;;;;;2.05;1.80;;;19.30;82.80;;;18.16;81.62;95956.19;4966880;28;20521;-72
2021/06/23 01:53:30;;;;;;;2.63;2.20;;;19.20;82.70;;;18.13;80.20;95956.66;4969595;28;20752;-72
2021/06/23 01:55:55;;;;;;;3.38;3.08;;;19.30;82.80;;;18.12;80.13;95954.25;4970802;28;20034;-71
2021/06/23 01:58:22;;;;;;;2.83;2.40;;;19.20;83.00;;;18.09;81.11;95952.84;5004152;28;20058;-72
2021/06/23 02:01:09;;;;;;;4.85;3.00;;;19.30;82.90;;;18.09;82.69;95944.84;4966735;28;20035;-72
2021/06/23 02:03:55;;;;;;;8.32;5.97;;;19.20;83.00;;;18.08;82.53;95951.22;4992717;28;20026;-73
2021/06/23 02:06:40;;;;;;;5.25;4.75;;;19.10;83.30;;;18.07;82.90;95952.28;4980648;28;20055;-70
2021/06/23 02:09:36;;;;;;;6.28;5.28;;;19.20;83.50;;;18.06;82.84;95948.00;5003953;28;20050;-72
2021/06/23 02:12:31;;;;;;;4.85;4.18;;;19.10;83.70;;;18.05;82.49;95954.38;4970362;28;20093;-71
2021/06/23 02:15:00;;;;;;;6.03;5.43;;;19.10;84.00;;;18.02;81.21;95957.50;4986158;28;20486;-72
2021/06/23 02:17:28;;;;;;;6.78;6.10;;;19.10;84.30;;;17.99;81.98;95972.09;4967305;28;20057;-72
2021/06/23 02:19:54;;;;;;;7.35;6.72;;;19.10;84.10;;;17.99;82.18;95974.78;4952140;28;20031;-72
2021/06/23 02:22:22;;;;;;;8.70;6.97;;;19.10;84.20;;;17.99;82.47;95974.78;4952644;28;20038;-72
2021/06/23 02:24:55;;;;;;;8.80;7.28;;;19.10;84.40;;;18.00;82.98;95975.56;4976562;28;20030;-72
2021/06/23 02:27:21;;;;;;;24.83;21.05;;;19.10;84.30;;;17.99;81.69;95979.28;4974942;28;20101;-72
2021/06/23 02:29:47;;;;;;;17.85;14.00;;;19.10;84.60;;;17.97;82.01;95976.88;4970343;28;20046;-72
2021/06/23 02:32:18;;;;;;;13.88;11.32;;;19.10;84.50;;;17.97;83.17;95982.19;4960552;28;20133;-72
2021/06/23 02:34:48;;;;;;;12.38;11.10;;;19.10;84.70;;;17.95;81.96;95978.16;4996718;28;20046;-71
2021/06/23 02:37:14;;;;;;;12.27;11.00;;;19.10;84.60;;;17.94;82.61;95982.66;4971458;28;20034;-73
2021/06/23 02:39:40;;;;;;;12.55;11.25;;;19.10;84.70;;;17.94;82.28;95981.84;4965276;28;20531;-73
2021/06/23 02:42:06;;;;;;;13.00;11.80;;;19.00;84.80;;;17.93;82.99;95982.91;4954964;28;20182;-71
2021/06/23 02:44:32;;;;;;;14.05;12.70;;;19.00;84.80;;;17.91;82.71;95983.16;4964053;28;20503;-72
2021/06/23 02:47:01;;;;;;;14.73;13.05;;;19.00;85.00;;;17.90;82.92;95986.84;4950596;28;20046;-72
2021/06/23 02:49:26;;;;;;;14.65;13.18;;;19.00;84.80;;;17.89;82.47;95984.44;4946192;28;20043;-72
2021/06/23 02:51:52;;;;;;;15.25;13.73;;;19.00;85.10;;;17.88;82.72;95977.47;5005014;28;20543;-72
2021/06/23 02:54:19;;;;;;;15.32;13.02;;;19.00;84.80;;;17.88;82.71;95988.09;4964174;28;20526;-72
2021/06/23 02:56:45;;;;;;;15.65;14.07;;;19.10;84.80;;;17.85;82.57;95983.25;4934659;28;20414;-72
2021/06/23 02:59:11;;;;;;;15.23;13.80;;;19.10;84.80;;;17.84;82.57;95990.44;4964403;28;20031;-72
2021/06/23 03:01:36;;;;;;;18.83;13.20;;;19.00;84.90;;;17.85;82.79;95999.22;4946977;28;20023;-73
2021/06/23 03:04:02;;;;;;;16.00;14.45;;;19.10;84.80;;;17.84;83.02;96000.28;4953293;28;20077;-72
2021/06/23 03:06:28;;;;;;;15.85;14.25;;;19.10;84.80;;;17.83;83.43;96009.31;4969731;28;20042;-72
2021/06/23 03:08:53;;;;;;;15.88;14.30;;;18.90;85.10;;;17.79;83.39;96006.31;4987439;28;20039;-71
2021/06/23 03:11:19;;;;;;;15.27;13.88;;;19.00;84.90;;;17.80;83.41;96012.44;4953674;28;20031;-71
2021/06/23 03:13:45;;;;;;;15.30;13.90;;;19.00;84.90;;;17.79;83.15;96016.94;4936110;28;20039;-74
2021/06/23 03:16:11;;;;;;;14.95;13.55;;;19.00;85.00;;;17.80;83.52;96012.44;4937483;28;20070;-67
2021/06/23 03:18:36;;;;;;;16.02;14.32;;;18.90;85.30;;;17.80;83.46;96023.09;4993992;28;20433;-66
2021/06/23 03:21:05;;;;;;;15.55;14.00;;;19.00;85.30;;;17.82;83.79;96024.47;4980865;28;20046;-66
2021/06/23 03:23:30;;;;;;;16.77;14.57;;;19.00;85.20;;;17.84;83.90;96026.88;4986239;28;20126;-66
2021/06/23 03:25:56;;;;;;;15.68;14.07;;;19.00;85.40;;;17.89;83.76;96037.66;4983068;28;20032;-67
2021/06/23 03:28:22;;;;;;;15.00;13.50;;;19.10;85.20;;;17.89;83.28;96050.97;4966825;28;20030;-65
2021/06/23 03:30:48;;;;;;;15.35;13.95;;;19.10;85.20;;;17.93;84.12;96062.75;4965928;28;20428;-71
2021/06/23 03:33:13;;;;;;;15.27;13.68;;;19.10;85.30;;;17.94;84.23;96053.72;4964403;28;20516;-71
2021/06/23 03:35:39;;;;;;;16.58;14.18;;;19.10;85.40;;;17.96;83.44;96060.41;4973679;28;20185;-71
2021/06/23 03:38:05;;;;;;;15.15;13.65;;;19.20;85.20;;;18.00;84.41;96063.41;4968842;28;20192;-72
2021/06/23 03:40:31;;;;;;;15.07;13.68;;;19.20;85.30;;;18.02;84.20;96063.97;4952638;28;20210;-71
2021/06/23 03:42:56;;;;;;;15.98;14.27;;;19.30;85.20;;;18.03;83.62;96066.41;4941930;28;20055;-71
2021/06/23 03:45:22;;;;;;;15.30;13.82;;;19.30;85.20;;;18.09;84.18;96069.16;4984827;28;20038;-70
2021/06/23 03:47:48;;;;;;;16.48;14.90;;;19.30;85.20;;;18.10;84.13;96084.09;4969086;28;20027;-71
2021/06/23 03:50:15;;;;;;;16.95;15.13;;;19.40;85.10;;;18.12;84.66;96079.34;5016188;28;20113;-71
2021/06/23 03:52:40;;;;;;;17.10;15.30;;;19.40;85.30;;;18.15;84.19;96078.88;4960063;28;20027;-70
2021/06/23 03:55:08;;;;;;;20.33;16.77;;;19.40;85.10;;;18.16;84.30;96075.97;4989976;28;20034;-71
2021/06/23 03:57:34;;;;;;;18.13;16.23;;;19.50;85.00;;;18.21;84.44;96076.06;4967391;28;20030;-71
2021/06/23 03:59:59;;;;;;;17.83;15.85;;;19.40;84.80;;;18.21;84.36;96068.06;4949270;28;20554;-71
2021/06/23 04:02:25;;;;;;;18.75;16.95;;;19.50;84.70;;;18.25;84.37;96060.41;4953432;28;20051;-71
2021/06/23 04:04:51;;;;;;;18.50;16.70;;;19.60;84.50;;;18.28;83.43;96063.41;4965384;28;20046;-71
2021/06/23 04:07:17;;;;;;;18.60;16.40;;;19.60;84.30;;;18.32;83.32;96067.22;4961404;28;20561;-72
2021/06/23 04:09:42;;;;;;;17.52;15.82;;;19.60;84.10;;;18.33;83.37;96066.19;4967855;28;20038;-70
2021/06/23 04:12:10;;;;;;;19.35;17.10;;;19.60;84.00;;;18.36;83.43;96065.72;4960300;28;20039;-71
2021/06/23 04:14:36;;;;;;;18.08;16.27;;;19.70;84.00;;;18.38;83.57;96067.31;4969807;28;20047;-73
2021/06/23 04:17:02;;;;;;;19.65;17.65;;;19.70;84.10;;;18.40;83.61;96068.69;4977453;28;20097;-71
2021/06/23 04:19:28;;;;;;;19.13;17.20;;;19.80;83.80;;;18.42;84.06;96073.78;4998455;28;20453;-72
2021/06/23 04:21:53;;;;;;;18.25;16.35;;;19.80;84.00;;;18.44;83.36;96071.69;4972182;28;20047;-73
2021/06/23 04:24:19;;;;;;;18.73;16.52;;;19.80;83.80;;;18.47;83.16;96060.56;4965265;28;20110;-73
2021/06/23 04:26:45;;;;;;;22.67;18.05;;;19.90;84.10;;;18.51;84.29;96067.81;4966143;28;20114;-71
2021/06/23 04:29:11;;;;;;;19.10;17.10;;;19.90;84.10;;;18.54;83.74;96066.53;4961719;28;20431;-72
2021/06/23 04:31:37;;;;;;;17.33;15.65;;;20.00;84.20;;;18.61;83.57;96077.88;4956360;28;20049;-67
2021/06/23 04:34:03;;;;;;;22.17;17.55;;;20.00;84.50;;;18.64;83.57;96072.91;4971448;28;20114;-68
2021/06/23 04:36:29;;;;;;;19.75;17.75;;;20.00;84.40;;;18.66;83.60;96075.31;4962576;28;20503;-67
2021/06/23 04:38:55;;;;;;;14.70;12.68;;;20.00;84.40;;;18.66;83.28;96080.66;4965463;28;20597;-67
2021/06/23 04:41:20;;;;;;;20.27;17.88;;;20.00;84.00;;;18.68;83.98;96083.88;4965959;28;20038;-68
2021/06/23 04:43:46;;;;;;;18.63;16.77;;;20.00;84.10;;;18.71;83.61;96090.56;4949293;28;20037;-67
2021/06/23 04:46:12;;;;;;;18.77;16.98;;;20.10;84.20;;;18.74;84.63;96092.75;4952421;28;20041;-69
2021/06/23 04:48:37;;;;;;;22.15;18.95;;;20.10;84.00;;;18.74;83.77;96093.56;4998074;28;20112;-67
2021/06/23 04:51:04;;;;;;;19.50;17.65;;;20.10;83.80;;;18.76;83.36;96091.47;4961665;28;20035;-67
2021/06/23 04:53:29;;;;;;;19.27;17.35;;;20.10;83.60;;;18.75;83.36;96100.50;4948249;28;20032;-64
2021/06/23 04:55:55;;;;;;;20.17;17.90;;;20.10;83.50;;;18.73;83.79;96099.94;4962308;28;20043;-67
2021/06/23 04:58:21;;;;;;;20.27;18.13;;;20.00;83.80;;;18.75;83.07;96100.50;4971373;28;20062;-67
2021/06/23 05:00:47;;;;;;;18.73;16.85;;;20.00;83.90;;;18.72;84.12;96101.00;4999650;28;20042;-69
2021/06/23 05:03:13;;;;;;;19.50;17.50;;;20.00;83.40;;;18.72;83.45;96106.31;4978014;28;20031;-69
2021/06/23 05:05:41;;;;;;;18.33;16.58;;;20.00;83.60;;;18.71;82.98;96096.72;5003935;28;20035;-67
2021/06/23 05:08:07;;;;;;;18.60;16.60;;;20.00;83.40;;;18.72;83.84;96095.66;4988515;28;20081;-67
2021/06/23 05:10:33;;;;;;;18.95;17.02;;;20.00;83.30;;;18.70;82.84;96100.44;4986516;28;20419;-68
2021/06/23 05:12:59;;;;;;;18.23;16.35;;;20.00;83.20;;;18.72;83.82;96106.31;4981880;28;20406;-70
2021/06/23 05:15:25;;;;;;;16.80;15.20;;;20.10;83.20;;;18.72;82.95;96111.66;4999278;28;20487;-72
2021/06/23 05:17:51;;;;;;;18.38;16.00;;;20.10;83.20;;;18.73;82.82;96107.13;4952383;28;20169;-74
2021/06/23 05:20:17;;;;;;;18.60;15.50;;;20.10;83.30;;;18.75;83.05;96111.16;4971325;28;20035;-73
2021/06/23 05:22:49;;;;;;;17.73;16.02;;;20.10;83.00;;;18.78;83.05;96117.88;4979961;28;20363;-73
2021/06/23 05:25:16;;;;;;;17.35;15.60;;;20.10;82.80;;;18.80;82.65;96113.13;4969957;28;20050;-71
2021/06/23 05:27:42;;;;;;;17.02;15.32;;;20.20;82.80;;;18.85;82.13;96115.88;4954129;28;20043;-72
2021/06/23 05:30:08;;;;;;;16.45;14.80;;;20.30;82.70;;;18.88;82.93;96115.41;4970597;28;20027;-72
2021/06/23 05:32:34;;;;;;;15.20;13.80;;;20.40;82.60;;;18.90;82.16;96119.44;4987976;28;20122;-77
2021/06/23 05:35:00;;;;;;;16.05;14.38;;;20.40;82.40;;;18.92;82.71;96127.19;4984945;28;20034;-63
2021/06/23 05:37:26;;;;;;;17.27;15.48;;;20.30;82.30;;;18.92;82.02;96130.66;4984242;28;20063;-68
2021/06/23 05:39:53;;;;;;;16.95;15.15;;;20.30;82.20;;;18.93;82.93;96128.81;4990735;28;21810;-67
2021/06/23 05:42:19;;;;;;;16.67;15.07;;;20.30;82.60;;;18.92;83.07;96122.66;4954814;28;20356;-68
2021/06/23 05:44:44;;;;;;;15.75;14.25;;;20.30;82.70;;;18.94;82.02;96119.75;4971639;28;20045;-70
2021/06/23 05:47:10;;;;;;;16.52;14.80;;;20.30;82.20;;;18.94;82.95;96112.56;4952690;28;20035;-66
2021/06/23 05:49:36;;;;;;;16.00;14.50;;;20.40;82.20;;;18.96;82.03;96118.47;4954019;28;20098;-68
2021/06/23 05:52:03;;;;;;;16.20;14.52;;;20.40;82.20;;;19.01;82.19;96119.59;5002598;28;20482;-69
2021/06/23 05:54:30;;;;;;;16.25;14.55;;;20.50;82.30;;;19.05;81.96;96115.44;4958220;28;20050;-67
2021/06/23 05:56:56;;;;;;;15.82;14.00;;;20.50;82.00;;;19.07;81.68;96118.66;4941812;28;20042;-74
2021/06/23 05:59:21;;;;;;;13.80;12.52;;;20.60;81.60;;;19.11;82.12;96109.13;4951378;28;20039;-68
2021/06/23 06:01:47;;;;;;;14.32;12.38;;;20.60;81.70;;;19.16;82.45;96114.53;4979100;28;20046;-68
2021/06/23 06:04:13;;;;;;;12.20;11.05;;;20.70;80.50;;;19.19;82.29;96116.69;4992793;28;20406;-67
2021/06/23 06:06:39;;;;;;;12.82;11.50;;;20.70;80.90;;;19.25;81.73;96129.09;4978512;28;20043;-66
2021/06/23 06:09:04;;;;;;;12.07;10.93;;;20.80;80.00;;;19.29;80.57;96130.22;5003191;28;20070;-67
2021/06/23 06:11:30;;;;;;;12.75;10.60;;;20.90;79.20;;;19.31;80.62;96129.97;4994303;28;20491;-66
2021/06/23 06:13:56;;;;;;;11.88;10.45;;;20.80;78.60;;;19.32;80.74;96132.38;4951507;28;20027;-68
2021/06/23 06:16:22;;;;;;;13.27;11.98;;;20.90;79.00;;;19.37;81.18;96131.66;4955995;28;20058;-65
2021/06/23 06:18:48;;;;;;;12.27;10.95;;;20.90;79.50;;;19.40;81.11;96134.63;4971438;28;20134;-68
2021/06/23 06:21:14;;;;;;;22.75;18.50;;;21.00;79.60;;;19.44;81.13;96135.75;4969368;28;20042;-69
2021/06/23 06:23:39;;;;;;;21.10;18.92;;;21.00;79.80;;;19.49;81.47;96133.19;5015152;28;20077;-67
2021/06/23 06:26:05;;;;;;;27.33;24.15;;;21.10;79.50;;;19.50;81.06;96129.47;4979124;28;20086;-72
2021/06/23 06:28:31;;;;;;;11.77;10.57;;;21.10;79.40;;;19.52;80.03;96127.38;4951714;28;20113;-72
2021/06/23 06:30:57;;;;;;;15.38;12.63;;;21.40;77.20;;;19.69;80.84;96123.88;5001065;28;20133;-67
2021/06/23 06:33:22;;;;;;;13.68;9.82;;;21.80;76.20;;;19.91;80.42;96129.25;5002175;28;20127;-71
2021/06/23 06:35:48;;;;;;;16.85;14.70;;;22.20;73.90;;;20.21;79.58;96143.00;4967805;28;20042;-69
2021/06/23 06:38:14;;;;;;;9.77;8.50;;;22.70;74.40;;;20.58;79.95;96151.22;4969471;28;20074;-69
2021/06/23 06:40:40;;;;;;;8.55;7.18;;;23.10;72.30;;;20.98;79.28;96150.03;4984359;28;20038;-68
2021/06/23 06:43:05;;;;;;;7.32;6.63;;;23.50;70.10;;;21.34;77.78;96153.84;4952679;28;20062;-68
2021/06/23 06:45:31;;;;;;;5.85;5.35;;;23.70;69.30;;;21.68;76.69;96157.03;4968861;28;20038;-68
2021/06/23 06:47:57;;;;;;;6.68;5.65;;;24.00;66.80;;;21.97;75.17;96152.16;4969858;28;20509;-68
2021/06/23 06:50:23;;;;;;;6.55;5.88;;;24.20;67.20;;;22.22;74.56;96151.50;4956678;28;20442;-68
2021/06/23 06:52:49;;;;;;;7.47;5.93;;;24.30;66.10;;;22.47;73.77;96148.13;4980776;28;20494;-69
2021/06/23 06:55:20;;;;;;;8.38;5.85;;;24.60;66.40;;;22.62;73.40;96153.50;4969754;28;20128;-68
2021/06/23 06:57:50;;;;;;;7.13;5.55;;;24.60;67.20;;;22.75;71.10;96147.66;4971121;28;20055;-69
2021/06/23 07:00:17;;;;;;;6.40;5.80;;;24.70;65.60;;;22.82;71.42;96142.06;4951786;28;20059;-69
2021/06/23 07:02:43;;;;;;;6.97;5.55;;;24.50;63.90;;;22.81;71.18;96145.78;4956086;28;20073;-70
2021/06/23 07:05:09;;;;;;;6.38;5.65;;;24.50;64.10;;;22.76;70.51;96143.09;4983829;28;20479;-69
2021/06/23 07:07:34;;;;;;;6.53;5.82;;;24.40;64.70;;;22.74;70.00;96155.97;4963031;28;20062;-70
2021/06/23 07:10:00;;;;;;;8.27;7.45;;;24.30;65.70;;;22.66;69.95;96148.47;4966618;28;20482;-69
2021/06/23 07:12:26;;;;;;;6.50;5.82;;;24.20;65.30;;;22.61;69.49;96149.22;4967555;28;20041;-70
2021/06/23 07:14:52;;;;;;;7.10;6.10;;;24.20;64.50;;;22.56;69.52;96144.66;4954368;28;20054;-72
2021/06/23 07:17:17;;;;;;;7.47;6.18;;;24.10;65.00;;;22.52;70.04;96138.22;4952794;28;20035;-70
2021/06/23 07:19:43;;;;;;;8.43;7.50;;;24.10;66.20;;;22.51;69.22;96141.16;4967635;28;20031;-66
2021/06/23 07:22:09;;;;;;;7.32;5.88;;;24.30;65.70;;;22.50;69.90;96137.66;4967009;28;20042;-66
2021/06/23 07:24:34;;;;;;;7.13;6.43;;;24.40;66.30;;;22.61;69.54;96147.34;4966955;28;20118;-66
2021/06/23 07:27:00;;;;;;;6.40;5.78;;;24.90;63.90;;;22.84;70.58;96137.25;4966966;28;20538;-66
2021/06/23 07:29:28;;;;;;;5.82;5.32;;;25.40;64.90;;;23.09;69.96;96137.31;4968703;28;20059;-66
2021/06/23 07:31:58;;;;;;;6.75;6.05;;;25.90;61.80;;;23.36;69.30;96133.56;4939369;28;20035;-65
2021/06/23 07:37:04;;;;;;;8.02;6.47;;;26.60;58.90;;;24.01;65.56;96131.88;4978971;28;20121;-66
2021/06/23 07:39:31;;;;;;;5.70;5.20;;;27.00;56.80;;;24.36;66.77;96128.28;5016049;28;20057;-66
2021/06/23 07:41:57;;;;;;;5.63;4.38;;;27.50;55.40;;;24.67;66.31;96129.75;4960406;28;20059;-66
2021/06/23 07:44:29;;;;;;;4.80;4.40;;;27.80;55.00;;;25.01;65.37;96121.75;4950418;28;20463;-66
2021/06/23 07:47:00;;;;;;;7.20;4.68;;;28.30;53.20;;;25.38;64.89;96123.09;4968038;28;20034;-66
2021/06/23 07:49:28;;;;;;;7.28;6.57;;;28.60;52.20;;;25.71;63.97;96124.16;4968336;28;20031;-66
2021/06/23 08:10:53;;;;;;;6.05;2.85;;;30.40;46.50;;;27.56;57.21;96121.50;4933136;28;20047;-75
2021/06/23 08:13:18;;;;;;;;;;;30.60;46.80;;;27.72;52.70;96112.84;4943493;28;20173;-68
2021/06/23 08:15:46;;;;;;;4.00;3.00;;;30.80;43.70;;;27.97;55.19;96117.00;5000553;28;20354;-70
2021/06/23 08:18:14;;;;;;;4.00;3.08;;;31.00;44.00;;;28.26;56.41;96114.03;4959835;28;20134;-69
2021/06/23 08:20:40;;;;;;;3.42;2.90;;;31.30;44.70;;;28.58;56.63;96115.81;4948438;28;20522;-72
2021/06/23 08:23:05;;;;;;;3.75;3.03;;;31.70;46.00;;;28.79;56.63;96112.66;4968599;28;20157;-71
2021/06/23 08:25:31;;;;;;;3.85;3.10;;;31.40;47.40;;;28.79;55.25;96115.38;4962166;28;20122;-73
2021/06/23 08:27:57;;;;;;;3.38;2.97;;;31.00;46.10;;;28.63;54.71;96118.41;4949274;28;20464;-72
2021/06/23 08:30:23;;;;;;;3.97;3.17;;;30.50;46.70;;;28.36;54.80;96111.13;4967416;28;20030;-67
2021/06/23 08:32:49;;;;;;;3.95;2.80;;;30.00;47.60;;;28.13;53.67;96114.00;4969859;28;20117;-68
2021/06/23 08:35:15;;;;;;;4.88;2.70;;;30.10;46.60;;;28.08;53.43;96111.41;4966401;28;20414;-71
2021/06/23 08:37:41;;;;;;;4.00;3.13;;;30.40;46.10;;;28.24;53.49;96109.97;4976976;28;20046;-68
2021/06/23 08:40:09;;;;;;;4.00;3.55;;;30.70;44.70;;;28.40;52.71;96116.72;4984050;28;20102;-71
2021/06/23 08:42:35;;;;;;;6.95;6.20;;;31.10;44.90;;;28.65;53.06;96112.69;4958939;28;20074;-69
2021/06/23 08:45:01;;;;;;;5.13;4.13;;;31.60;45.40;;;28.99;53.13;96114.94;4965796;28;20069;-70
2021/06/23 08:47:27;;;;;;;2.90;2.60;;;32.10;45.40;;;29.24;53.28;96111.63;4935752;28;20039;-67
2021/06/23 08:49:52;;;;;;;3.22;2.58;;;32.10;45.80;;;29.25;52.84;96107.81;4961625;28;20058;-67
2021/06/23 08:52:18;;;;;;;2.75;2.47;;;31.50;46.00;;;29.05;52.53;96110.22;4970375;28;20125;-66
2021/06/23 08:54:47;;;;;;;5.47;2.63;;;31.00;44.90;;;28.85;51.82;96109.56;4962069;28;20211;-69
2021/06/23 08:57:13;;;;;;;3.53;2.60;;;30.70;45.50;;;28.63;50.92;96110.28;4984654;28;20034;-67
2021/06/23 08:59:42;;;;;;;2.85;2.35;;;30.70;44.20;;;28.48;51.06;96113.31;4975138;28;20506;-68
2021/06/23 09:02:17;;;;;;;3.03;2.65;;;30.30;47.00;;;28.20;51.45;96115.19;4975899;28;20078;-66
2021/06/23 09:04:59;;;;;;;2.95;2.50;;;29.60;48.40;;;27.86;51.48;96109.38;4961417;28;20035;-72
2021/06/23 09:07:48;;;;;;;5.28;2.95;;;29.30;49.50;;;27.55;53.07;96114.47;4973572;28;20122;-67
2021/06/23 09:10:23;;;;;;;3.85;2.90;;;29.00;50.60;;;27.23;52.81;96116.09;4955985;28;20122;-69
2021/06/23 09:13:03;;;;;;;4.63;3.10;;;28.60;50.80;;;26.97;50.63;96120.25;4975905;28;20518;-71
2021/06/23 09:15:54;;;;;;;5.22;2.80;;;28.40;47.60;;;26.85;50.70;96108.00;4960601;28;20455;-69
2021/06/23 09:18:24;;;;;;;4.00;3.00;;;28.90;46.50;;;26.89;51.68;96110.91;4963937;28;20054;-71
2021/06/23 09:21:00;;;;;;;2.92;2.42;;;29.00;46.80;;;26.88;52.06;96116.59;4961886;28;20498;-70
2021/06/23 09:23:47;;;;;;;5.32;2.83;;;28.90;48.50;;;26.80;52.73;96108.06;4952008;28;20039;-71
2021/06/23 09:26:15;;;;;;;3.13;2.75;;;28.70;49.20;;;26.68;53.73;96101.47;4994589;28;20055;-71
2021/06/23 09:28:41;;;;;;;9.95;8.20;;;28.50;51.00;;;26.52;53.68;96104.41;4966456;28;20035;-71
2021/06/23 09:31:07;;;;;;;10.23;7.32;;;28.20;50.90;;;26.42;54.45;96103.72;4965707;28;20113;-71
2021/06/23 09:33:33;;;;;;;7.00;6.30;;;28.10;53.00;;;26.38;54.71;96110.78;4966583;28;20046;-70
2021/06/23 09:36:04;;;;;;;5.38;3.28;;;28.30;51.70;;;26.60;54.38;96104.84;4936820;28;20035;-66
2021/06/23 09:38:46;;;;;;;3.50;2.85;;;29.30;48.30;;;27.05;52.04;96101.50;4983635;28;20292;-66
2021/06/23 09:41:33;;;;;;;2.75;2.38;;;30.10;45.50;;;27.51;52.04;96102.66;4952550;28;20042;-71
2021/06/23 09:44:05;;;;;;;3.92;2.72;;;30.50;46.50;;;27.62;52.10;96104.13;4952692;28;20051;-68
2021/06/23 09:46:33;;;;;;;4.80;2.63;;;30.30;45.40;;;27.82;51.69;96102.94;4986939;28;20131;-67
2021/06/23 09:49:22;;;;;;;3.72;2.75;;;30.80;44.30;;;28.22;50.31;96095.97;4984291;28;20402;-67
2021/06/23 09:51:53;;;;;;;2.55;2.33;;;31.30;43.80;;;28.70;50.88;96099.03;4987135;28;20422;-67
2021/06/23 09:54:21;;;;;;;4.45;2.47;;;32.10;43.50;;;29.21;49.68;96104.13;4971101;28;20031;-71
2021/06/23 09:56:47;;;;;;;4.63;2.80;;;32.80;42.00;;;29.47;49.79;96108.94;4954414;28;20082;-71
2021/06/23 09:59:37;;;;;;;4.15;2.90;;;32.40;40.30;;;29.53;47.77;96105.78;4945738;28;20143;-67
2021/06/23 10:02:28;;;;;;;3.20;2.90;;;32.50;41.80;;;29.49;46.24;96107.53;4957403;28;20111;-67
2021/06/23 10:04:56;;;;;;;3.97;3.00;;;31.80;41.40;;;29.34;48.73;96101.66;4962711;28;20038;-65
2021/06/23 10:07:45;;;;;;;4.40;3.22;;;31.20;42.80;;;29.22;46.48;96094.88;4979907;28;20038;-67
2021/06/23 10:10:16;;;;;;;6.22;5.32;;;31.50;41.60;;;29.20;47.30;96099.03;4968452;28;20040;-65
2021/06/23 10:12:42;;;;;;;5.72;4.25;;;31.30;42.70;;;29.08;48.60;96096.84;4954584;28;20103;-66
2021/06/23 10:15:08;;;;;;;6.53;4.95;;;31.10;43.80;;;28.98;48.96;96099.00;4969988;28;20039;-65
2021/06/23 10:17:34;;;;;;;4.30;3.78;;;31.00;44.70;;;28.89;49.21;96098.91;4971843;28;20039;-66
2021/06/23 10:20:00;;;;;;;3.92;3.53;;;30.90;44.70;;;28.74;48.61;96097.31;4950629;28;20470;-69
2021/06/23 10:22:27;;;;;;;3.65;3.15;;;30.70;43.60;;;28.58;48.67;96094.16;4954700;28;20054;-67
2021/06/23 10:24:54;;;;;;;3.53;3.20;;;30.40;43.90;;;28.41;49.35;96093.19;4936688;28;20460;-68
2021/06/23 10:27:20;;;;;;;4.18;3.60;;;30.20;45.40;;;28.21;49.70;96084.34;4951764;28;20048;-67
2021/06/23 10:29:46;;;;;;;3.40;2.88;;;30.10;47.20;;;28.08;49.89;96095.19;4983517;28;20050;-68
2021/06/23 10:32:12;;;;;;;4.40;3.00;;;29.80;46.50;;;27.95;50.00;96091.34;4970178;28;20514;-69
2021/06/23 10:34:38;;;;;;;4.20;3.10;;;29.70;46.30;;;27.77;49.75;96084.94;4966950;28;20035;-71
2021/06/23 10:37:04;;;;;;;7.50;2.95;;;29.50;45.80;;;27.60;49.40;96088.16;4979628;28;20409;-70